createdAt,value
2022-12-04T00:01:19.877Z,0.80
2022-12-04T00:03:47.087Z,0.80
2022-12-04T00:06:17.081Z,0.80
2022-12-04T00:08:44.951Z,0.90
2022-12-04T00:11:14.651Z,0.90
2022-12-04T00:13:41.776Z,0.90
2022-12-04T00:16:12.535Z,0.90
2022-12-04T00:18:41.010Z,0.90
2022-12-04T00:21:11.636Z,1.00
2022-12-04T00:23:41.393Z,1.00
2022-12-04T00:26:14.925Z,0.90
2022-12-04T00:28:42.717Z,0.80
2022-12-04T00:31:16.479Z,0.80
2022-12-04T00:33:44.046Z,0.90
2022-12-04T00:36:16.282Z,0.90
2022-12-04T00:38:46.363Z,0.80
2022-12-04T00:41:18.581Z,0.80
2022-12-04T00:43:46.008Z,0.80
2022-12-04T00:46:13.377Z,0.90
2022-12-04T00:48:41.180Z,0.80
2022-12-04T00:51:15.158Z,0.80
2022-12-04T00:53:42.494Z,0.80
2022-12-04T00:56:20.427Z,0.80
2022-12-04T00:58:47.918Z,0.90
2022-12-04T01:01:18.575Z,0.90
2022-12-04T01:03:46.094Z,0.90
2022-12-04T01:06:23.252Z,0.90
2022-12-04T01:08:52.155Z,0.90
2022-12-04T01:11:20.409Z,0.90
2022-12-04T01:13:47.796Z,0.90
2022-12-04T01:16:28.060Z,0.90
2022-12-04T01:18:55.203Z,0.90
2022-12-04T01:21:22.584Z,0.90
2022-12-04T01:23:49.588Z,0.90
2022-12-04T01:26:16.828Z,0.90
2022-12-04T01:28:44.042Z,1.00
2022-12-04T01:31:16.911Z,0.90
2022-12-04T01:33:44.464Z,0.90
2022-12-04T01:36:15.236Z,0.90
2022-12-04T01:38:42.709Z,0.90
2022-12-04T01:41:12.663Z,0.90
2022-12-04T01:43:40.587Z,0.90
2022-12-04T01:46:08.827Z,0.90
2022-12-04T01:48:49.092Z,0.90
2022-12-04T01:51:25.035Z,0.80
2022-12-04T01:53:56.566Z,0.90
2022-12-04T01:56:29.558Z,0.90
2022-12-04T01:58:59.275Z,0.90
2022-12-04T02:01:29.180Z,0.90
2022-12-04T02:03:56.985Z,0.90
2022-12-04T02:06:24.251Z,0.90
2022-12-04T02:08:51.234Z,1.00
2022-12-04T02:11:42.621Z,1.00
2022-12-04T02:14:24.345Z,0.90
2022-12-04T02:17:04.698Z,0.90
2022-12-04T02:19:37.689Z,0.90
2022-12-04T02:22:17.910Z,0.90
2022-12-04T02:24:58.473Z,0.90
2022-12-04T02:27:40.295Z,0.90
2022-12-04T02:30:11.510Z,0.90
2022-12-04T02:33:14.034Z,0.90
2022-12-04T02:35:46.547Z,1.00
2022-12-04T02:38:35.723Z,0.90
2022-12-04T02:41:33.973Z,0.90
2022-12-04T02:44:20.492Z,0.90
2022-12-04T02:46:52.766Z,0.90
2022-12-04T02:49:26.168Z,0.90
2022-12-04T02:51:55.736Z,0.90
2022-12-04T02:54:34.165Z,0.90
2022-12-04T02:57:04.723Z,0.90
2022-12-04T02:59:39.368Z,0.90
2022-12-04T03:02:31.800Z,0.90
2022-12-04T03:05:03.973Z,0.80
2022-12-04T03:07:48.927Z,0.80
2022-12-04T03:10:24.991Z,0.80
2022-12-04T03:13:11.550Z,0.80
2022-12-04T03:15:50.360Z,0.90
2022-12-04T03:18:26.438Z,0.80
2022-12-04T03:21:06.515Z,0.90
2022-12-04T03:23:41.132Z,0.90
2022-12-04T03:26:19.807Z,0.80
2022-12-04T03:29:03.124Z,0.90
2022-12-04T03:31:40.244Z,0.90
2022-12-04T03:34:09.149Z,0.90
2022-12-04T03:36:55.982Z,0.90
2022-12-04T03:39:28.967Z,0.90
2022-12-04T03:42:08.237Z,0.90
2022-12-04T03:44:48.056Z,0.90
2022-12-04T03:47:20.864Z,0.90
2022-12-04T03:50:02.226Z,0.90
2022-12-04T03:52:55.134Z,0.90
2022-12-04T03:55:32.300Z,0.80
2022-12-04T03:58:10.117Z,0.80
2022-12-04T04:00:40.617Z,0.90
2022-12-04T04:03:20.141Z,0.90
2022-12-04T04:05:52.215Z,0.90
2022-12-04T04:08:30.787Z,0.80
2022-12-04T04:11:18.544Z,0.90
2022-12-04T04:14:13.799Z,0.80
2022-12-04T04:17:04.442Z,0.80
2022-12-04T04:19:55.043Z,0.90
2022-12-04T04:22:43.888Z,0.90
2022-12-04T04:25:18.129Z,0.80
2022-12-04T04:27:53.149Z,0.90
2022-12-04T04:30:21.394Z,0.90
2022-12-04T04:32:58.823Z,0.90
2022-12-04T04:35:49.274Z,0.80
2022-12-04T04:38:27.831Z,0.80
2022-12-04T04:41:19.550Z,0.80
2022-12-04T04:43:55.392Z,0.80
2022-12-04T04:46:32.036Z,0.80
2022-12-04T04:49:02.836Z,0.80
2022-12-04T04:51:33.282Z,0.90
2022-12-04T04:54:05.459Z,0.90
2022-12-04T04:56:39.238Z,0.90
2022-12-04T04:59:06.209Z,0.90
2022-12-04T05:01:33.674Z,0.80
2022-12-04T05:04:01.523Z,0.90
2022-12-04T05:06:28.760Z,0.90
2022-12-04T05:08:55.720Z,0.90
2022-12-04T05:11:22.978Z,0.80
2022-12-04T05:13:50.033Z,0.80
2022-12-04T05:16:17.660Z,0.80
2022-12-04T05:19:04.903Z,0.80
2022-12-04T05:21:32.823Z,0.80
2022-12-04T05:24:00.425Z,0.80
2022-12-04T05:26:27.745Z,0.80
2022-12-04T05:28:54.892Z,0.80
2022-12-04T05:31:22.203Z,0.80
2022-12-04T05:33:49.228Z,0.80
2022-12-04T05:36:16.591Z,0.90
2022-12-04T05:38:43.668Z,0.90
2022-12-04T05:41:11.036Z,0.90
2022-12-04T05:43:38.260Z,0.80
2022-12-04T05:46:07.757Z,0.80
2022-12-04T05:48:35.687Z,0.80
2022-12-04T05:51:10.511Z,0.80
2022-12-04T05:53:37.941Z,0.80
2022-12-04T05:56:06.360Z,0.80
2022-12-04T05:58:38.035Z,0.80
2022-12-04T06:01:15.925Z,0.70
2022-12-04T06:03:42.987Z,0.80
2022-12-04T06:06:19.331Z,0.80
2022-12-04T06:08:49.408Z,0.80
2022-12-04T06:11:19.714Z,0.80
2022-12-04T06:13:47.259Z,0.70
2022-12-04T06:16:30.024Z,0.70
2022-12-04T06:19:02.454Z,0.70
2022-12-04T06:21:32.147Z,0.80
2022-12-04T06:23:59.360Z,0.80
2022-12-04T06:26:26.768Z,0.80
2022-12-04T06:28:54.762Z,0.80
2022-12-04T06:31:22.294Z,0.80
2022-12-04T06:33:50.790Z,0.80
2022-12-04T06:36:19.633Z,0.80
2022-12-04T06:38:47.689Z,0.80
2022-12-04T06:41:17.975Z,0.80
2022-12-04T06:43:45.725Z,0.80
2022-12-04T06:46:19.243Z,0.80
2022-12-04T06:48:47.067Z,0.80
2022-12-04T06:51:18.069Z,0.80
2022-12-04T06:53:45.909Z,0.80
2022-12-04T06:56:18.143Z,0.80
2022-12-04T06:58:46.769Z,0.80
2022-12-04T07:01:17.194Z,0.80
2022-12-04T07:03:50.950Z,0.80
2022-12-04T07:06:26.554Z,0.80
2022-12-04T07:09:09.910Z,0.80
2022-12-04T07:11:38.358Z,0.90
2022-12-04T07:14:05.649Z,0.80
2022-12-04T07:16:40.036Z,0.80
2022-12-04T07:19:08.535Z,0.90
2022-12-04T07:21:35.929Z,0.90
2022-12-04T07:24:03.046Z,0.90
2022-12-04T07:26:31.125Z,0.90
2022-12-04T07:28:59.552Z,1.00
2022-12-04T07:31:28.988Z,1.00
2022-12-04T07:33:57.446Z,1.00
2022-12-04T07:36:26.182Z,0.90
2022-12-04T07:38:56.144Z,0.90
2022-12-04T07:41:26.023Z,0.80
2022-12-04T07:43:54.172Z,0.80
2022-12-04T07:46:26.013Z,0.90
2022-12-04T07:48:55.886Z,0.80
2022-12-04T07:51:26.815Z,0.90
2022-12-04T07:53:54.757Z,1.00
2022-12-04T07:56:22.386Z,0.90
2022-12-04T07:58:49.582Z,0.90
2022-12-04T08:01:20.143Z,1.00
2022-12-04T08:03:49.239Z,1.00
2022-12-04T08:06:21.770Z,1.00
2022-12-04T08:08:49.657Z,1.00
2022-12-04T08:11:22.265Z,1.00
2022-12-04T08:13:54.100Z,1.10
2022-12-04T08:16:21.777Z,1.10
2022-12-04T08:18:48.893Z,1.00
2022-12-04T08:21:20.862Z,1.00
2022-12-04T08:23:50.483Z,1.00
2022-12-04T08:26:19.314Z,1.00
2022-12-04T08:28:47.783Z,1.00
2022-12-04T08:31:17.962Z,1.00
2022-12-04T08:33:46.765Z,1.00
2022-12-04T08:36:17.327Z,1.00
2022-12-04T08:38:46.981Z,1.00
2022-12-04T08:41:18.280Z,1.00
2022-12-04T08:43:45.829Z,1.00
2022-12-04T08:46:16.026Z,1.00
2022-12-04T08:48:43.232Z,1.00
2022-12-04T08:51:16.663Z,1.00
2022-12-04T08:53:44.138Z,1.00
2022-12-04T08:56:11.446Z,1.10
2022-12-04T08:58:44.255Z,1.10
2022-12-04T09:01:13.561Z,1.00
2022-12-04T09:03:41.278Z,1.10
2022-12-04T09:06:12.245Z,1.10
2022-12-04T09:08:39.637Z,1.10
2022-12-04T09:11:08.389Z,1.10
2022-12-04T09:13:36.234Z,1.10
2022-12-04T09:16:06.945Z,1.10
2022-12-04T09:18:35.391Z,1.10
2022-12-04T09:21:06.437Z,1.00
2022-12-04T09:23:36.567Z,1.00
2022-12-04T09:26:06.368Z,1.00
2022-12-04T09:28:33.473Z,1.10
2022-12-04T09:31:03.532Z,1.00
2022-12-04T09:33:31.520Z,1.10
2022-12-04T09:35:59.960Z,1.10
2022-12-04T09:38:28.403Z,1.10
2022-12-04T09:41:29.543Z,1.00
2022-12-04T09:44:18.389Z,1.10
2022-12-04T09:47:18.828Z,1.10
2022-12-04T09:50:26.110Z,1.20
2022-12-04T09:52:58.997Z,1.10
2022-12-04T09:55:32.375Z,1.10
2022-12-04T09:58:02.746Z,1.10
2022-12-04T10:00:31.721Z,1.10
2022-12-04T10:03:06.082Z,1.10
2022-12-04T10:05:51.711Z,1.10
2022-12-04T10:08:19.091Z,1.10
2022-12-04T10:11:14.982Z,1.10
2022-12-04T10:14:13.818Z,1.10
2022-12-04T10:16:52.134Z,1.20
2022-12-04T10:19:32.094Z,1.20
2022-12-04T10:22:14.185Z,1.10
2022-12-04T10:24:57.645Z,1.20
2022-12-04T10:27:44.802Z,1.30
2022-12-04T10:30:24.722Z,1.30
2022-12-04T10:32:59.919Z,1.30
2022-12-04T10:35:30.164Z,1.30
2022-12-04T10:38:02.132Z,1.20
2022-12-04T10:40:48.980Z,1.20
2022-12-04T10:43:28.514Z,1.10
2022-12-04T10:45:56.230Z,1.10
2022-12-04T10:48:31.446Z,1.00
2022-12-04T10:50:58.812Z,1.10
2022-12-04T10:53:32.780Z,1.10
2022-12-04T10:56:14.726Z,1.10
2022-12-04T10:58:41.998Z,1.10
2022-12-04T11:01:14.748Z,1.20
2022-12-04T11:03:44.199Z,1.20
2022-12-04T11:06:15.244Z,1.20
2022-12-04T11:08:48.727Z,1.20
2022-12-04T11:11:22.774Z,1.20
2022-12-04T11:14:01.138Z,1.30
2022-12-04T11:16:39.049Z,1.30
2022-12-04T11:19:27.008Z,1.30
2022-12-04T11:21:57.398Z,1.30
2022-12-04T11:24:29.498Z,1.30
2022-12-04T11:26:57.780Z,1.20
2022-12-04T11:29:38.322Z,1.30
2022-12-04T11:32:08.172Z,1.30
2022-12-04T11:34:41.213Z,1.20
2022-12-04T11:37:20.895Z,1.20
2022-12-04T11:39:49.230Z,1.20
2022-12-04T11:42:23.031Z,1.30
2022-12-04T11:45:21.141Z,1.30
2022-12-04T11:47:57.250Z,1.30
2022-12-04T11:50:43.125Z,1.30
2022-12-04T11:53:10.550Z,1.30
2022-12-04T11:55:52.411Z,1.30
2022-12-04T11:58:27.110Z,1.30
2022-12-04T12:01:31.458Z,1.30
2022-12-04T12:04:37.198Z,1.30
2022-12-04T12:07:24.235Z,1.30
2022-12-04T12:10:05.105Z,1.30
2022-12-04T12:12:51.126Z,1.30
2022-12-04T12:15:33.471Z,1.30
2022-12-04T12:18:29.934Z,1.30
2022-12-04T12:21:21.447Z,1.30
2022-12-04T12:24:17.474Z,1.40
2022-12-04T12:26:57.935Z,1.40
2022-12-04T12:29:56.087Z,1.40
2022-12-04T12:32:53.871Z,1.30
2022-12-04T12:35:27.165Z,1.30
2022-12-04T12:38:00.053Z,1.20
2022-12-04T12:40:35.433Z,1.20
2022-12-04T12:43:20.100Z,1.20
2022-12-04T12:46:12.439Z,1.20
2022-12-04T12:49:22.820Z,1.30
2022-12-04T12:52:07.659Z,1.30
2022-12-04T12:54:35.246Z,1.30
2022-12-04T12:57:12.979Z,1.30
2022-12-04T12:59:47.500Z,1.30
2022-12-04T13:02:27.560Z,1.30
2022-12-04T13:05:00.203Z,1.20
2022-12-04T13:07:57.926Z,1.30
2022-12-04T13:10:36.431Z,1.30
2022-12-04T13:13:11.011Z,1.20
2022-12-04T13:15:49.549Z,1.20
2022-12-04T13:18:29.138Z,1.20
2022-12-04T13:21:00.760Z,1.30
2022-12-04T13:23:49.099Z,1.30
2022-12-04T13:26:49.671Z,1.20
2022-12-04T13:29:36.025Z,1.20
2022-12-04T13:32:30.936Z,1.20
2022-12-04T13:35:28.341Z,1.10
2022-12-04T13:38:33.593Z,1.20
2022-12-04T13:41:04.071Z,1.20
2022-12-04T13:44:02.821Z,1.30
2022-12-04T13:46:42.442Z,1.20
2022-12-04T13:49:13.566Z,1.30
2022-12-04T13:51:41.960Z,1.20
2022-12-04T13:54:12.040Z,1.20
2022-12-04T13:56:41.635Z,1.20
2022-12-04T13:59:21.214Z,1.10
2022-12-04T14:01:51.721Z,1.20
2022-12-04T14:04:32.220Z,1.10
2022-12-04T14:07:02.089Z,1.10
2022-12-04T14:09:44.069Z,1.10
2022-12-04T14:12:17.375Z,1.10
2022-12-04T14:15:16.105Z,1.10
2022-12-04T14:17:47.328Z,1.10
2022-12-04T14:20:34.750Z,1.10
2022-12-04T14:23:19.929Z,1.10
2022-12-04T14:25:47.140Z,1.10
2022-12-04T14:28:42.219Z,1.10
2022-12-04T14:31:21.920Z,1.10
2022-12-04T14:34:21.447Z,1.00
2022-12-04T14:36:52.241Z,1.00
2022-12-04T14:39:45.395Z,1.00
2022-12-04T14:42:23.355Z,1.00
2022-12-04T14:44:59.259Z,1.00
2022-12-04T14:47:43.692Z,1.10
2022-12-04T14:50:37.312Z,1.00
2022-12-04T14:53:26.590Z,1.00
2022-12-04T14:56:07.688Z,1.00
2022-12-04T14:58:38.747Z,1.00
2022-12-04T15:01:23.952Z,1.00
2022-12-04T15:04:01.369Z,1.00
2022-12-04T15:06:33.796Z,1.00
2022-12-04T15:09:22.824Z,1.00
2022-12-04T15:12:11.202Z,1.00
2022-12-04T15:14:46.875Z,1.00
2022-12-04T15:17:16.244Z,1.00
2022-12-04T15:19:44.027Z,1.00
2022-12-04T15:22:34.646Z,1.00
2022-12-04T15:25:02.557Z,1.00
2022-12-04T15:27:32.908Z,1.00
2022-12-04T15:30:02.281Z,1.10
2022-12-04T15:32:30.867Z,1.00
2022-12-04T15:35:08.919Z,1.00
2022-12-04T15:37:36.706Z,1.00
2022-12-04T15:40:08.540Z,1.00
2022-12-04T15:42:35.535Z,1.00
2022-12-04T15:45:24.062Z,1.00
2022-12-04T15:47:53.769Z,1.00
2022-12-04T15:50:24.022Z,1.00
2022-12-04T15:53:17.474Z,1.00
2022-12-04T15:55:49.538Z,1.00
2022-12-04T15:58:22.873Z,1.00
2022-12-04T16:01:00.144Z,1.00
2022-12-04T16:03:31.402Z,1.00
2022-12-04T16:06:25.089Z,1.00
2022-12-04T16:08:58.225Z,1.00
2022-12-04T16:11:35.528Z,1.00
2022-12-04T16:14:09.288Z,1.10
2022-12-04T16:16:38.328Z,1.00
2022-12-04T16:19:24.376Z,1.10
2022-12-04T16:21:52.235Z,1.00
2022-12-04T16:24:19.445Z,1.00
2022-12-04T16:26:50.682Z,1.00
2022-12-04T16:29:17.920Z,1.00
2022-12-04T16:31:45.598Z,1.00
2022-12-04T16:34:13.751Z,1.00
2022-12-04T16:36:41.877Z,1.00
2022-12-04T16:39:09.064Z,0.90
2022-12-04T16:41:36.445Z,0.90
2022-12-04T16:44:03.571Z,0.90
2022-12-04T16:46:31.144Z,0.90
2022-12-04T16:49:01.470Z,0.90
2022-12-04T16:51:31.977Z,0.90
2022-12-04T16:53:59.866Z,0.90
2022-12-04T16:56:27.248Z,1.00
2022-12-04T16:58:54.455Z,0.90
2022-12-04T17:01:25.260Z,0.90
2022-12-04T17:03:52.975Z,1.00
2022-12-04T17:06:20.952Z,0.90
2022-12-04T17:08:47.944Z,0.90
2022-12-04T17:11:16.784Z,1.00
2022-12-04T17:13:44.258Z,1.00
2022-12-04T17:16:15.328Z,0.90
2022-12-04T17:18:48.185Z,0.90
2022-12-04T17:21:15.546Z,0.90
2022-12-04T17:23:42.937Z,0.90
2022-12-04T17:26:15.013Z,0.90
2022-12-04T17:28:42.701Z,0.90
2022-12-04T17:31:18.621Z,0.90
2022-12-04T17:33:46.801Z,0.90
2022-12-04T17:36:24.082Z,0.90
2022-12-04T17:39:01.468Z,0.90
2022-12-04T17:41:29.499Z,0.90
2022-12-04T17:43:59.121Z,0.90
2022-12-04T17:46:29.340Z,0.90
2022-12-04T17:48:59.553Z,0.90
2022-12-04T17:51:30.115Z,0.90
2022-12-04T17:53:57.363Z,0.90
2022-12-04T17:56:25.233Z,0.80
2022-12-04T17:58:53.361Z,0.80
2022-12-04T18:01:24.103Z,0.90
2022-12-04T18:03:56.181Z,0.90
2022-12-04T18:06:35.116Z,0.90
2022-12-04T18:09:02.669Z,0.80
2022-12-04T18:11:32.088Z,0.80
2022-12-04T18:14:12.517Z,0.80
2022-12-04T18:16:46.830Z,0.80
2022-12-04T18:19:16.554Z,0.80
2022-12-04T18:21:43.931Z,0.90
2022-12-04T18:24:11.211Z,0.90
2022-12-04T18:26:41.011Z,0.90
2022-12-04T18:29:09.424Z,0.90
2022-12-04T18:31:36.768Z,0.90
2022-12-04T18:34:07.564Z,1.00
2022-12-04T18:36:36.025Z,1.00
2022-12-04T18:39:10.599Z,0.90
2022-12-04T18:41:37.996Z,0.90
2022-12-04T18:44:05.753Z,0.90
2022-12-04T18:46:33.453Z,0.90
2022-12-04T18:49:04.466Z,0.80
2022-12-04T18:51:32.895Z,0.80
2022-12-04T18:54:04.552Z,0.90
2022-12-04T18:56:34.861Z,0.90
2022-12-04T18:59:08.691Z,0.90
2022-12-04T19:01:36.460Z,0.90
2022-12-04T19:04:06.482Z,0.90
2022-12-04T19:06:46.954Z,0.80
2022-12-04T19:09:17.151Z,0.80
2022-12-04T19:11:45.200Z,0.80
2022-12-04T19:14:22.432Z,0.70
2022-12-04T19:16:51.377Z,0.80
2022-12-04T19:19:18.776Z,0.80
2022-12-04T19:21:46.143Z,0.80
2022-12-04T19:24:13.738Z,0.80
2022-12-04T19:26:42.668Z,0.90
2022-12-04T19:29:13.785Z,0.80
2022-12-04T19:31:41.420Z,0.80
2022-12-04T19:34:08.499Z,0.90
2022-12-04T19:36:37.320Z,0.90
2022-12-04T19:39:07.033Z,0.80
2022-12-04T19:41:35.294Z,0.90
2022-12-04T19:44:14.639Z,0.90
2022-12-04T19:46:50.888Z,0.80
2022-12-04T19:49:18.239Z,0.80
2022-12-04T19:51:46.703Z,0.80
2022-12-04T19:54:14.181Z,0.80
2022-12-04T19:56:42.785Z,0.80
2022-12-04T19:59:11.677Z,0.70
2022-12-04T20:01:39.485Z,0.70
2022-12-04T20:04:08.245Z,0.70
2022-12-04T20:06:38.679Z,0.70
2022-12-04T20:09:11.805Z,0.70
2022-12-04T20:11:39.816Z,0.70
2022-12-04T20:14:07.776Z,0.60
2022-12-04T20:16:36.599Z,0.60
2022-12-04T20:19:06.217Z,0.60
2022-12-04T20:21:33.783Z,0.70
2022-12-04T20:24:04.079Z,0.70
2022-12-04T20:26:35.440Z,0.70
2022-12-04T20:29:03.069Z,0.70
2022-12-04T20:31:38.952Z,0.70
2022-12-04T20:34:08.828Z,0.70
2022-12-04T20:36:39.474Z,0.70
2022-12-04T20:39:07.999Z,0.60
2022-12-04T20:41:36.697Z,0.60
2022-12-04T20:44:06.262Z,0.60
2022-12-04T20:46:36.709Z,0.60
2022-12-04T20:49:06.601Z,0.60
2022-12-04T20:51:37.157Z,0.60
2022-12-04T20:54:07.947Z,0.70
2022-12-04T20:56:37.230Z,0.70
2022-12-04T20:59:07.775Z,0.70
2022-12-04T21:01:36.590Z,0.70
2022-12-04T21:04:06.793Z,0.70
2022-12-04T21:06:39.874Z,0.70
2022-12-04T21:09:16.591Z,0.70
2022-12-04T21:11:53.058Z,0.60
2022-12-04T21:14:41.918Z,0.70
2022-12-04T21:17:13.057Z,0.70
2022-12-04T21:19:40.164Z,0.70
2022-12-04T21:22:07.936Z,0.70
2022-12-04T21:24:39.174Z,0.70
2022-12-04T21:27:09.205Z,0.70
2022-12-04T21:29:39.301Z,0.70
2022-12-04T21:32:07.686Z,0.70
2022-12-04T21:34:35.361Z,0.70
2022-12-04T21:37:02.908Z,0.70
2022-12-04T21:39:30.416Z,0.70
2022-12-04T21:42:16.218Z,0.60
2022-12-04T21:44:44.536Z,0.70
2022-12-04T21:47:15.163Z,0.70
2022-12-04T21:49:42.271Z,0.60
2022-12-04T21:52:09.672Z,0.60
2022-12-04T21:54:36.953Z,0.60
2022-12-04T21:57:04.481Z,0.60
2022-12-04T21:59:31.794Z,0.60
2022-12-04T22:01:59.294Z,0.60
2022-12-04T22:04:28.410Z,0.60
2022-12-04T22:06:57.876Z,0.60
2022-12-04T22:09:26.150Z,0.60
2022-12-04T22:11:53.786Z,0.70
2022-12-04T22:14:20.857Z,0.60
2022-12-04T22:16:51.343Z,0.60
2022-12-04T22:19:18.771Z,0.60
2022-12-04T22:21:46.133Z,0.60
2022-12-04T22:24:13.166Z,0.60
2022-12-04T22:26:40.466Z,0.60
2022-12-04T22:29:41.472Z,0.60
2022-12-04T22:31:55.280Z,0.60
2022-12-04T22:34:25.077Z,0.60
2022-12-04T22:36:52.500Z,0.60
2022-12-04T22:39:19.613Z,0.60
2022-12-04T22:41:46.995Z,0.60
2022-12-04T22:44:14.071Z,0.70
2022-12-04T22:46:41.477Z,0.70
2022-12-04T22:49:08.477Z,0.60
2022-12-04T22:51:35.859Z,0.70
2022-12-04T22:54:02.934Z,0.70
2022-12-04T22:56:32.020Z,0.60
2022-12-04T22:59:00.009Z,0.60
2022-12-04T23:01:32.988Z,0.60
2022-12-04T23:04:01.292Z,0.60
2022-12-04T23:06:30.382Z,0.60
2022-12-04T23:09:03.982Z,0.60
2022-12-04T23:11:31.584Z,0.60
2022-12-04T23:14:01.325Z,0.60
2022-12-04T23:16:30.966Z,0.60
2022-12-04T23:18:58.617Z,0.60
2022-12-04T23:21:26.897Z,0.60
2022-12-04T23:23:55.457Z,0.60
2022-12-04T23:26:33.916Z,0.60
2022-12-04T23:29:01.734Z,0.60
2022-12-04T23:31:30.429Z,0.60
2022-12-04T23:33:58.005Z,0.60
2022-12-04T23:36:25.781Z,0.60
2022-12-04T23:38:53.248Z,0.60
2022-12-04T23:41:26.705Z,0.60
2022-12-04T23:43:54.606Z,0.60
2022-12-04T23:46:29.021Z,0.60
2022-12-04T23:48:56.192Z,0.60
2022-12-04T23:51:23.952Z,0.60
2022-12-04T23:53:51.798Z,0.60
2022-12-04T23:56:24.412Z,0.60
2022-12-04T23:58:53.534Z,0.60
